createdAt,value
2018-01-08T00:00:55.413Z,89.82
2018-01-08T00:03:23.089Z,89.57
2018-01-08T00:05:50.668Z,89.22
2018-01-08T00:08:18.234Z,88.85
2018-01-08T00:10:45.858Z,88.71
2018-01-08T00:13:13.487Z,88.68
2018-01-08T00:15:41.115Z,88.75
2018-01-08T00:18:08.737Z,89.28
2018-01-08T00:20:36.391Z,89.38
2018-01-08T00:23:03.945Z,89.39
2018-01-08T00:25:31.673Z,89.65
2018-01-08T00:27:59.247Z,89.66
2018-01-08T00:30:26.872Z,89.48
2018-01-08T00:32:54.526Z,89.40
2018-01-08T00:35:22.159Z,89.40
2018-01-08T00:37:49.807Z,89.73
2018-01-08T00:40:17.462Z,89.60
2018-01-08T00:42:45.026Z,89.72
2018-01-08T00:45:12.616Z,89.51
2018-01-08T00:47:40.299Z,89.39
2018-01-08T00:50:07.875Z,89.10
2018-01-08T00:52:35.509Z,89.12
2018-01-08T00:55:03.151Z,89.06
2018-01-08T00:57:30.726Z,89.21
2018-01-08T00:59:58.354Z,89.40
2018-01-08T01:02:25.999Z,89.26
2018-01-08T01:04:53.626Z,89.16
2018-01-08T01:07:21.198Z,88.91
2018-01-08T01:09:48.833Z,88.83
2018-01-08T01:12:16.387Z,88.84
2018-01-08T01:14:43.954Z,88.79
2018-01-08T01:17:11.586Z,88.79
2018-01-08T01:19:39.211Z,89.03
2018-01-08T01:22:06.828Z,89.16
2018-01-08T01:24:34.521Z,89.21
2018-01-08T01:27:02.095Z,89.40
2018-01-08T01:29:29.666Z,89.56
2018-01-08T01:31:57.282Z,89.53
2018-01-08T01:34:24.825Z,89.69
2018-01-08T01:36:52.393Z,89.81
2018-01-08T01:39:20.032Z,89.80
2018-01-08T01:41:47.613Z,89.62
2018-01-08T01:44:15.191Z,89.33
2018-01-08T01:46:42.814Z,89.31
2018-01-08T01:49:21.496Z,89.34
2018-01-08T01:51:49.126Z,89.15
2018-01-08T01:54:16.755Z,89.06
2018-01-08T01:56:44.329Z,89.10
2018-01-08T01:59:12.006Z,89.25
2018-01-08T02:01:39.622Z,89.14
2018-01-08T02:04:07.253Z,89.62
2018-01-08T02:06:34.870Z,89.60
2018-01-08T02:09:02.449Z,89.68
2018-01-08T02:11:30.019Z,89.75
2018-01-08T02:13:57.638Z,89.81
2018-01-08T02:16:25.202Z,89.92
2018-01-08T02:18:52.771Z,89.96
2018-01-08T02:21:20.468Z,89.83
2018-01-08T02:23:48.038Z,89.67
2018-01-08T02:26:15.677Z,89.52
2018-01-08T02:28:43.302Z,89.27
2018-01-08T02:31:10.866Z,89.12
2018-01-08T02:33:38.502Z,89.01
2018-01-08T02:36:06.182Z,89.24
2018-01-08T02:38:33.804Z,89.31
2018-01-08T02:41:01.373Z,89.22
2018-01-08T02:43:29.022Z,89.42
2018-01-08T02:45:56.587Z,89.22
2018-01-08T02:48:24.226Z,88.98
2018-01-08T02:50:51.980Z,88.75
2018-01-08T02:53:19.607Z,88.51
2018-01-08T02:55:47.174Z,88.44
2018-01-08T02:58:14.822Z,88.54
2018-01-08T03:00:42.512Z,88.41
2018-01-08T03:03:10.081Z,88.60
2018-01-08T03:05:37.702Z,88.76
2018-01-08T03:08:05.267Z,89.06
2018-01-08T03:10:32.834Z,89.18
2018-01-08T03:13:00.462Z,89.13
2018-01-08T03:15:28.025Z,89.15
2018-01-08T03:17:55.593Z,89.46
2018-01-08T03:20:23.275Z,89.42
2018-01-08T03:22:50.909Z,89.40
2018-01-08T03:25:18.509Z,89.50
2018-01-08T03:27:46.204Z,89.27
2018-01-08T03:30:13.829Z,89.07
2018-01-08T03:32:41.398Z,89.00
2018-01-08T03:35:09.018Z,88.96
2018-01-08T03:37:36.582Z,88.95
2018-01-08T03:40:04.158Z,88.84
2018-01-08T03:42:31.770Z,89.02
2018-01-08T03:44:59.331Z,89.38
2018-01-08T03:47:26.896Z,89.56
2018-01-08T03:49:54.576Z,89.50
2018-01-08T03:52:22.202Z,89.32
2018-01-08T03:54:49.826Z,89.18
2018-01-08T03:57:17.473Z,89.17
2018-01-08T03:59:45.043Z,89.18
2018-01-08T04:02:12.713Z,89.04
2018-01-08T04:04:40.343Z,88.74
2018-01-08T04:07:07.913Z,88.49
2018-01-08T04:09:35.538Z,88.15
2018-01-08T04:12:03.211Z,87.99
2018-01-08T04:14:30.834Z,87.75
2018-01-08T04:16:58.399Z,87.69
2018-01-08T04:19:26.018Z,87.62
2018-01-08T04:21:53.578Z,87.56
2018-01-08T04:24:21.152Z,87.51
2018-01-08T04:26:48.772Z,87.68
2018-01-08T04:29:16.339Z,87.77
2018-01-08T04:31:43.892Z,87.98
2018-01-08T04:34:11.564Z,88.17
2018-01-08T04:36:39.134Z,88.52
2018-01-08T04:39:06.708Z,88.48
2018-01-08T04:41:34.328Z,88.69
2018-01-08T04:44:01.965Z,89.06
2018-01-08T04:46:29.597Z,89.31
2018-01-08T04:48:57.279Z,89.38
2018-01-08T04:51:24.904Z,89.24
2018-01-08T04:53:52.462Z,89.06
2018-01-08T04:56:20.094Z,89.18
2018-01-08T04:58:47.675Z,89.19
2018-01-08T05:01:15.238Z,89.02
2018-01-08T05:03:42.859Z,89.32
2018-01-08T05:06:10.437Z,89.41
2018-01-08T05:08:38.003Z,89.42
2018-01-08T05:11:05.683Z,89.28
2018-01-08T05:13:33.290Z,89.29
2018-01-08T05:16:00.928Z,89.26
2018-01-08T05:18:28.611Z,89.20
2018-01-08T05:20:56.239Z,89.13
2018-01-08T05:23:23.821Z,88.95
2018-01-08T05:25:51.521Z,88.74
2018-01-08T05:28:19.087Z,88.65
2018-01-08T05:30:46.659Z,88.58
2018-01-08T05:33:14.352Z,88.28
2018-01-08T05:35:41.926Z,88.54
2018-01-08T05:38:09.493Z,88.64
2018-01-08T05:40:37.199Z,88.66
2018-01-08T05:43:04.771Z,88.22
2018-01-08T05:45:32.342Z,87.80
2018-01-08T05:47:59.966Z,87.76
2018-01-08T05:50:27.525Z,87.70
2018-01-08T05:52:55.085Z,87.99
2018-01-08T05:55:22.735Z,88.28
2018-01-08T05:57:50.359Z,88.33
2018-01-08T06:00:17.926Z,88.23
2018-01-08T06:02:45.608Z,87.82
2018-01-08T06:05:13.174Z,87.71
2018-01-08T06:07:40.738Z,87.29
2018-01-08T06:10:08.357Z,87.01
2018-01-08T06:12:35.982Z,86.71
2018-01-08T06:15:03.651Z,86.58
2018-01-08T06:17:31.274Z,86.41
2018-01-08T06:19:58.834Z,86.15
2018-01-08T06:22:26.458Z,85.86
2018-01-08T06:24:54.097Z,85.49
2018-01-08T06:27:21.643Z,85.20
2018-01-08T06:29:49.271Z,84.97
2018-01-08T06:32:16.924Z,84.85
2018-01-08T06:34:44.482Z,84.71
2018-01-08T06:37:12.112Z,84.64
2018-01-08T06:39:39.875Z,84.48
2018-01-08T06:42:07.438Z,84.47
2018-01-08T06:44:35.063Z,84.42
2018-01-08T06:47:02.711Z,84.22
2018-01-08T06:49:30.335Z,83.98
2018-01-08T06:51:57.897Z,83.52
2018-01-08T06:54:25.529Z,83.23
2018-01-08T06:56:53.090Z,83.14
2018-01-08T06:59:20.705Z,83.13
2018-01-08T07:01:48.275Z,83.28
2018-01-08T07:04:15.835Z,83.37
2018-01-08T07:06:43.428Z,83.21
2018-01-08T07:09:11.036Z,83.00
2018-01-08T07:11:38.658Z,82.61
2018-01-08T07:14:06.283Z,82.57
2018-01-08T07:16:33.851Z,82.29
2018-01-08T07:19:01.490Z,82.11
2018-01-08T07:21:29.084Z,82.43
2018-01-08T07:23:56.733Z,82.62
2018-01-08T07:26:24.354Z,81.66
2018-01-08T07:28:51.926Z,81.15
2018-01-08T07:31:19.561Z,80.65
2018-01-08T07:33:47.188Z,80.24
2018-01-08T07:36:14.803Z,79.16
2018-01-08T07:38:42.382Z,78.79
2018-01-08T07:41:10.006Z,78.43
2018-01-08T07:43:37.581Z,78.46
2018-01-08T07:46:05.147Z,78.17
2018-01-08T07:48:32.828Z,77.09
2018-01-08T07:51:00.394Z,75.61
2018-01-08T07:53:28.021Z,74.39
2018-01-08T07:55:55.660Z,72.65
2018-01-08T07:58:23.226Z,72.48
2018-01-08T08:00:50.854Z,72.50
2018-01-08T08:03:18.426Z,71.69
2018-01-08T08:05:45.995Z,71.59
2018-01-08T08:08:13.647Z,71.01
2018-01-08T08:10:41.278Z,70.42
2018-01-08T08:13:08.965Z,70.67
2018-01-08T08:15:36.551Z,71.24
2018-01-08T08:18:04.124Z,71.85
2018-01-08T08:20:31.706Z,71.18
2018-01-08T08:22:59.275Z,70.84
2018-01-08T08:25:26.886Z,69.65
2018-01-08T08:27:54.436Z,69.46
2018-01-08T08:30:21.997Z,68.31
2018-01-08T08:32:49.573Z,67.65
2018-01-08T08:35:17.180Z,66.98
2018-01-08T08:37:44.888Z,65.95
2018-01-08T08:40:12.537Z,66.12
2018-01-08T08:42:40.107Z,65.52
2018-01-08T08:45:08.606Z,64.83
2018-01-08T08:47:36.184Z,65.13
2018-01-08T08:50:03.844Z,65.05
2018-01-08T08:52:31.427Z,65.12
2018-01-08T08:54:59.034Z,64.26
2018-01-08T08:57:26.675Z,64.39
2018-01-08T08:59:54.246Z,64.91
2018-01-08T09:02:21.954Z,64.01
2018-01-08T09:04:49.591Z,63.28
2018-01-08T09:07:17.235Z,64.02
2018-01-08T09:09:44.878Z,64.46
2018-01-08T09:12:12.502Z,63.96
2018-01-08T09:14:40.225Z,63.40
2018-01-08T09:17:07.775Z,62.50
2018-01-08T09:19:35.333Z,62.75
2018-01-08T09:22:02.968Z,61.65
2018-01-08T09:24:30.534Z,61.23
2018-01-08T09:26:58.220Z,60.79
2018-01-08T09:29:25.855Z,60.56
2018-01-08T09:31:53.474Z,60.67
2018-01-08T09:34:21.116Z,60.80
2018-01-08T09:36:48.750Z,60.08
2018-01-08T09:39:16.375Z,60.45
2018-01-08T09:41:43.950Z,60.33
2018-01-08T09:44:11.522Z,60.15
2018-01-08T09:46:39.103Z,59.74
2018-01-08T09:49:06.734Z,59.97
2018-01-08T09:51:34.358Z,58.94
2018-01-08T09:54:01.982Z,58.62
2018-01-08T09:56:29.614Z,58.49
2018-01-08T09:58:57.195Z,58.59
2018-01-08T10:01:24.791Z,58.09
2018-01-08T10:04:04.056Z,58.59
2018-01-08T10:06:43.520Z,58.65
2018-01-08T10:09:22.754Z,61.50
2018-01-08T10:12:02.144Z,61.87
2018-01-08T10:14:41.727Z,63.21
2018-01-08T10:17:20.912Z,63.45
2018-01-08T10:20:03.415Z,63.00
2018-01-08T10:22:30.968Z,62.15
2018-01-08T10:24:58.590Z,62.93
2018-01-08T10:27:26.173Z,62.64
2018-01-08T10:29:53.805Z,62.20
2018-01-08T10:32:21.448Z,62.09
2018-01-08T10:34:49.022Z,61.63
2018-01-08T10:37:16.673Z,62.34
2018-01-08T10:39:44.303Z,61.94
2018-01-08T10:42:17.534Z,61.57
2018-01-08T10:44:50.685Z,59.80
2018-01-08T10:47:23.775Z,58.54
2018-01-08T10:49:56.957Z,56.39
2018-01-08T10:52:24.033Z,54.97
2018-01-08T10:54:51.660Z,53.58
2018-01-08T10:57:19.290Z,52.07
2018-01-08T10:59:46.880Z,49.58
2018-01-08T11:02:19.965Z,48.96
2018-01-08T11:04:47.549Z,46.37
2018-01-08T11:07:15.222Z,46.60
2018-01-08T11:09:42.841Z,47.61
2018-01-08T11:12:10.423Z,47.50
2018-01-08T11:14:38.002Z,48.44
2018-01-08T11:17:05.578Z,48.28
2018-01-08T11:19:33.151Z,47.92
2018-01-08T11:22:00.835Z,47.62
2018-01-08T11:24:28.482Z,47.18
2018-01-08T11:26:56.055Z,46.98
2018-01-08T11:29:23.647Z,46.53
2018-01-08T11:31:51.256Z,45.75
2018-01-08T11:34:18.902Z,46.85
2018-01-08T11:36:46.571Z,46.48
2018-01-08T11:39:14.154Z,46.96
2018-01-08T11:41:41.795Z,49.03
2018-01-08T11:44:09.504Z,50.82
2018-01-08T11:46:37.127Z,51.69
2018-01-08T11:49:04.758Z,53.15
2018-01-08T11:51:32.381Z,54.13
2018-01-08T11:53:59.950Z,53.80
2018-01-08T11:56:27.627Z,54.21
2018-01-08T11:58:55.231Z,55.07
2018-01-08T12:01:22.814Z,55.59
2018-01-08T12:03:50.446Z,55.54
2018-01-08T12:06:18.023Z,56.05
2018-01-08T12:08:45.582Z,57.02
2018-01-08T12:11:13.293Z,57.19
2018-01-08T12:13:40.879Z,57.62
2018-01-08T12:16:08.508Z,58.20
2018-01-08T12:18:36.179Z,58.63
2018-01-08T12:21:03.745Z,58.89
2018-01-08T12:23:31.370Z,59.97
2018-01-08T12:25:58.997Z,61.36
2018-01-08T12:28:26.583Z,62.59
2018-01-08T12:30:54.252Z,64.09
2018-01-08T12:33:21.823Z,64.97
2018-01-08T12:35:49.446Z,64.51
2018-01-08T12:38:17.074Z,65.26
2018-01-08T12:40:44.678Z,65.44
2018-01-08T12:43:12.318Z,65.27
2018-01-08T12:45:39.895Z,65.72
2018-01-08T12:48:07.519Z,65.77
2018-01-08T12:50:35.156Z,65.79
2018-01-08T12:53:02.727Z,66.03
2018-01-08T12:55:30.380Z,66.40
2018-01-08T12:57:57.951Z,66.56
2018-01-08T13:00:25.654Z,66.13
2018-01-08T13:02:53.291Z,66.39
2018-01-08T13:05:20.875Z,66.69
2018-01-08T13:07:48.459Z,66.85
2018-01-08T13:10:16.090Z,67.06
2018-01-08T13:12:43.780Z,67.49
2018-01-08T13:15:11.351Z,67.69
2018-01-08T13:17:38.984Z,67.92
2018-01-08T13:20:06.620Z,67.77
2018-01-08T13:22:34.216Z,68.42
2018-01-08T13:25:01.860Z,68.42
2018-01-08T13:27:29.487Z,68.33
2018-01-08T13:29:57.117Z,68.15
2018-01-08T13:32:24.765Z,68.13
2018-01-08T13:34:52.345Z,68.17
2018-01-08T13:37:19.974Z,68.46
2018-01-08T13:39:47.608Z,68.07
2018-01-08T13:42:15.202Z,68.29
2018-01-08T13:44:42.847Z,68.11
2018-01-08T13:47:10.483Z,68.27
2018-01-08T13:49:38.183Z,68.58
2018-01-08T13:52:05.782Z,68.87
2018-01-08T13:54:33.351Z,69.02
2018-01-08T13:57:01.017Z,69.81
2018-01-08T13:59:28.651Z,70.26
2018-01-08T14:01:56.351Z,70.52
2018-01-08T14:04:23.938Z,70.82
2018-01-08T14:06:51.603Z,71.50
2018-01-08T14:09:19.211Z,71.88
2018-01-08T14:11:46.885Z,72.16
2018-01-08T14:14:14.575Z,72.61
2018-01-08T14:16:42.148Z,73.11
2018-01-08T14:19:09.723Z,73.59
2018-01-08T14:21:37.310Z,74.03
2018-01-08T14:24:04.939Z,74.40
2018-01-08T14:26:32.569Z,74.39
2018-01-08T14:29:00.779Z,74.35
2018-01-08T14:31:28.350Z,74.56
2018-01-08T14:33:55.954Z,74.65
2018-01-08T14:36:23.523Z,75.06
2018-01-08T14:38:51.202Z,75.20
2018-01-08T14:41:18.778Z,75.46
2018-01-08T14:43:46.348Z,75.35
2018-01-08T14:46:13.930Z,75.54
2018-01-08T14:48:41.560Z,75.71
2018-01-08T14:51:09.243Z,75.80
2018-01-08T14:53:36.810Z,76.00
2018-01-08T14:56:04.415Z,76.29
2018-01-08T14:58:31.998Z,76.46
2018-01-08T15:00:59.629Z,76.61
2018-01-08T15:03:27.256Z,76.84
2018-01-08T15:05:54.843Z,77.13
2018-01-08T15:08:22.412Z,77.32
2018-01-08T15:10:49.998Z,77.31
2018-01-08T15:13:17.627Z,77.68
2018-01-08T15:15:45.259Z,77.85
2018-01-08T15:18:12.857Z,78.22
2018-01-08T15:20:40.502Z,78.25
2018-01-08T15:23:08.088Z,78.28
2018-01-08T15:25:35.719Z,78.35
2018-01-08T15:28:03.371Z,78.59
2018-01-08T15:30:31.010Z,78.63
2018-01-08T15:32:58.653Z,78.71
2018-01-08T15:35:26.230Z,78.76
2018-01-08T15:37:53.804Z,78.55
2018-01-08T15:40:21.428Z,78.77
2018-01-08T15:42:49.055Z,78.78
2018-01-08T15:45:16.687Z,78.68
2018-01-08T15:47:44.330Z,79.08
2018-01-08T15:50:11.912Z,79.21
2018-01-08T15:52:39.557Z,79.34
2018-01-08T15:55:07.128Z,79.80
2018-01-08T15:57:34.755Z,79.78
2018-01-08T16:00:02.353Z,80.04
2018-01-08T16:02:29.983Z,80.09
2018-01-08T16:04:57.606Z,79.98
2018-01-08T16:07:25.181Z,80.16
2018-01-08T16:09:52.762Z,80.38
2018-01-08T16:12:20.360Z,80.36
2018-01-08T16:14:48.012Z,80.42
2018-01-08T16:17:15.694Z,80.44
2018-01-08T16:19:43.275Z,80.40
2018-01-08T16:22:10.916Z,80.58
2018-01-08T16:24:38.495Z,80.72
2018-01-08T16:27:06.114Z,80.86
2018-01-08T16:29:33.803Z,80.98
2018-01-08T16:32:01.377Z,81.11
2018-01-08T16:34:29.129Z,81.20
2018-01-08T16:36:56.698Z,81.35
2018-01-08T16:39:24.313Z,81.59
2018-01-08T16:41:52.004Z,81.87
2018-01-08T16:44:19.631Z,81.86
2018-01-08T16:46:47.201Z,81.85
2018-01-08T16:49:14.800Z,81.73
2018-01-08T16:51:42.377Z,81.97
2018-01-08T16:54:10.035Z,81.86
2018-01-08T16:56:37.671Z,81.45
2018-01-08T16:59:05.229Z,81.41
2018-01-08T17:01:32.809Z,81.70
2018-01-08T17:04:00.382Z,81.93
2018-01-08T17:06:28.081Z,82.13
2018-01-08T17:08:55.780Z,82.32
2018-01-08T17:11:23.324Z,82.42
2018-01-08T17:13:50.887Z,82.47
2018-01-08T17:16:18.520Z,82.57
2018-01-08T17:18:46.157Z,82.81
2018-01-08T17:21:13.798Z,83.04
2018-01-08T17:23:41.382Z,83.34
2018-01-08T17:26:08.964Z,83.27
2018-01-08T17:28:36.535Z,83.24
2018-01-08T17:31:04.175Z,83.48
2018-01-08T17:33:31.750Z,83.89
2018-01-08T17:35:59.322Z,84.18
2018-01-08T17:38:26.909Z,84.32
2018-01-08T17:40:54.493Z,84.28
2018-01-08T17:43:22.146Z,84.33
2018-01-08T17:45:49.718Z,84.18
2018-01-08T17:48:17.347Z,83.89
2018-01-08T17:50:44.923Z,83.57
2018-01-08T17:53:12.484Z,83.62
2018-01-08T17:55:40.207Z,83.62
2018-01-08T17:58:07.775Z,83.62
2018-01-08T18:00:35.346Z,83.45
2018-01-08T18:03:02.926Z,83.55
2018-01-08T18:05:30.505Z,84.21
2018-01-08T18:07:58.144Z,84.38
2018-01-08T18:10:25.722Z,85.07
2018-01-08T18:12:53.359Z,85.06
2018-01-08T18:15:20.962Z,84.67
2018-01-08T18:17:48.591Z,84.46
2018-01-08T18:20:16.274Z,84.32
2018-01-08T18:22:43.905Z,84.09
2018-01-08T18:25:11.535Z,84.11
2018-01-08T18:27:39.206Z,84.24
2018-01-08T18:30:06.838Z,84.34
2018-01-08T18:32:34.470Z,84.36
2018-01-08T18:35:02.060Z,84.38
2018-01-08T18:37:29.648Z,84.61
2018-01-08T18:39:57.235Z,85.31
2018-01-08T18:42:24.821Z,85.36
2018-01-08T18:44:52.538Z,85.29
2018-01-08T18:47:20.181Z,85.11
2018-01-08T18:49:47.821Z,85.01
2018-01-08T18:52:15.378Z,85.15
2018-01-08T18:54:43.003Z,85.23
2018-01-08T18:57:10.622Z,85.01
2018-01-08T18:59:38.191Z,85.03
2018-01-08T19:02:05.837Z,84.91
2018-01-08T19:04:33.475Z,84.91
2018-01-08T19:07:01.115Z,84.85
2018-01-08T19:09:28.748Z,84.73
2018-01-08T19:11:56.375Z,84.55
2018-01-08T19:14:23.964Z,84.48
2018-01-08T19:16:51.551Z,84.44
2018-01-08T19:19:19.127Z,84.51
2018-01-08T19:21:46.829Z,84.60
2018-01-08T19:24:14.418Z,84.68
2018-01-08T19:26:41.992Z,84.79
2018-01-08T19:29:09.571Z,85.03
2018-01-08T19:31:37.151Z,85.08
2018-01-08T19:34:04.820Z,85.56
2018-01-08T19:36:32.394Z,85.68
2018-01-08T19:39:00.017Z,85.76
2018-01-08T19:41:27.681Z,85.73
2018-01-08T19:43:55.334Z,85.91
2018-01-08T19:46:22.962Z,86.13
2018-01-08T19:48:50.534Z,86.57
2018-01-08T19:51:18.116Z,86.76
2018-01-08T19:53:45.715Z,86.56
2018-01-08T19:56:13.350Z,86.67
2018-01-08T19:58:41.044Z,86.83
2018-01-08T20:01:08.671Z,86.96
2018-01-08T20:03:36.242Z,87.22
2018-01-08T20:06:03.892Z,87.13
2018-01-08T20:08:31.476Z,86.90
2018-01-08T20:10:59.158Z,86.82
2018-01-08T20:13:26.735Z,86.72
2018-01-08T20:15:54.288Z,86.64
2018-01-08T20:18:21.868Z,86.68
2018-01-08T20:20:49.534Z,86.71
2018-01-08T20:23:17.169Z,86.90
2018-01-08T20:25:44.750Z,86.88
2018-01-08T20:28:12.381Z,86.88
2018-01-08T20:30:39.965Z,86.78
2018-01-08T20:33:07.543Z,86.79
2018-01-08T20:35:35.165Z,87.03
2018-01-08T20:38:02.735Z,87.00
2018-01-08T20:40:30.298Z,87.68
2018-01-08T20:42:57.935Z,87.82
2018-01-08T20:45:25.562Z,87.84
2018-01-08T20:47:53.214Z,87.61
2018-01-08T20:50:20.841Z,87.50
2018-01-08T20:52:48.470Z,87.40
2018-01-08T20:55:16.110Z,87.49
2018-01-08T20:57:43.743Z,87.60
2018-01-08T21:00:11.394Z,88.04
2018-01-08T21:02:38.967Z,88.24
2018-01-08T21:05:06.543Z,88.23
2018-01-08T21:07:34.122Z,88.10
2018-01-08T21:10:01.692Z,88.19
2018-01-08T21:12:29.332Z,88.37
2018-01-08T21:14:56.905Z,88.66
2018-01-08T21:17:24.471Z,88.83
2018-01-08T21:19:52.051Z,88.70
2018-01-08T21:22:19.617Z,88.48
2018-01-08T21:24:47.222Z,88.43
2018-01-08T21:27:14.790Z,88.17
2018-01-08T21:29:42.415Z,88.14
2018-01-08T21:32:09.982Z,88.30
2018-01-08T21:34:37.606Z,88.45
2018-01-08T21:37:05.283Z,88.30
2018-01-08T21:39:33.668Z,88.39
2018-01-08T21:42:01.294Z,88.63
2018-01-08T21:44:28.874Z,88.40
2018-01-08T21:46:56.498Z,88.26
2018-01-08T21:49:24.192Z,88.19
2018-01-08T21:51:51.768Z,88.20
2018-01-08T21:54:19.344Z,88.22
2018-01-08T21:56:46.930Z,88.38
2018-01-08T21:59:14.567Z,89.28
2018-01-08T22:01:42.195Z,89.99
2018-01-08T22:04:09.802Z,90.76
2018-01-08T22:06:37.379Z,91.43
2018-01-08T22:09:05.008Z,91.17
2018-01-08T22:11:32.588Z,91.83
2018-01-08T22:14:00.211Z,92.06
2018-01-08T22:16:27.782Z,92.10
2018-01-08T22:18:55.351Z,91.91
2018-01-08T22:21:22.930Z,91.88
2018-01-08T22:23:50.503Z,91.65
2018-01-08T22:26:18.130Z,90.95
2018-01-08T22:28:45.756Z,90.25
2018-01-08T22:31:13.338Z,89.92
2018-01-08T22:33:40.914Z,89.88
2018-01-08T22:36:08.483Z,89.51
2018-01-08T22:38:36.122Z,89.28
2018-01-08T22:41:03.766Z,89.09
2018-01-08T22:43:31.340Z,89.24
2018-01-08T22:45:58.936Z,89.59
2018-01-08T22:48:26.507Z,90.04
2018-01-08T22:50:54.188Z,90.31
2018-01-08T22:53:21.814Z,90.31
2018-01-08T22:55:49.443Z,90.32
2018-01-08T22:58:17.037Z,90.41
2018-01-08T23:00:44.610Z,90.12
2018-01-08T23:03:12.305Z,89.96
2018-01-08T23:05:39.870Z,90.03
2018-01-08T23:08:07.438Z,89.97
2018-01-08T23:10:35.018Z,89.82
2018-01-08T23:13:02.588Z,89.57
2018-01-08T23:15:30.230Z,89.25
2018-01-08T23:17:57.801Z,89.14
2018-01-08T23:20:25.435Z,89.11
2018-01-08T23:22:53.079Z,89.07
2018-01-08T23:25:20.657Z,88.72
2018-01-08T23:27:48.295Z,88.75
2018-01-08T23:30:15.858Z,88.92
2018-01-08T23:32:43.482Z,88.94
2018-01-08T23:35:11.066Z,88.94
2018-01-08T23:37:38.638Z,88.72
2018-01-08T23:40:06.272Z,88.73
2018-01-08T23:42:33.848Z,88.95
2018-01-08T23:45:01.423Z,88.92
2018-01-08T23:47:28.998Z,88.85
2018-01-08T23:49:56.652Z,88.73
2018-01-08T23:52:24.386Z,88.64
2018-01-08T23:54:51.966Z,88.64
2018-01-08T23:57:19.546Z,88.58
2018-01-08T23:59:47.130Z,88.58
